createdAt,value
2018-02-04T00:00:59.796Z,2.10
2018-02-04T00:03:27.360Z,2.10
2018-02-04T00:05:54.949Z,2.10
2018-02-04T00:08:22.585Z,2.10
2018-02-04T00:10:50.166Z,2.00
2018-02-04T00:13:17.744Z,2.00
2018-02-04T00:15:45.433Z,1.90
2018-02-04T00:18:12.996Z,2.00
2018-02-04T00:20:40.581Z,2.00
2018-02-04T00:23:08.155Z,2.00
2018-02-04T00:25:35.713Z,1.90
2018-02-04T00:28:03.357Z,1.90
2018-02-04T00:30:30.976Z,1.90
2018-02-04T00:32:58.559Z,1.90
2018-02-04T00:35:26.379Z,1.90
2018-02-04T00:37:53.961Z,1.90
2018-02-04T00:40:21.567Z,1.80
2018-02-04T00:42:49.156Z,1.80
2018-02-04T00:45:16.716Z,1.80
2018-02-04T00:47:44.309Z,1.80
2018-02-04T00:50:11.879Z,1.70
2018-02-04T00:52:39.437Z,1.70
2018-02-04T00:55:06.996Z,1.60
2018-02-04T00:57:34.582Z,1.50
2018-02-04T01:00:02.238Z,1.50
2018-02-04T01:02:29.797Z,1.50
2018-02-04T01:04:57.362Z,1.40
2018-02-04T01:07:24.939Z,1.50
2018-02-04T01:09:53.204Z,1.50
2018-02-04T01:12:20.797Z,1.50
2018-02-04T01:14:48.363Z,1.50
2018-02-04T01:17:15.959Z,1.50
2018-02-04T01:19:43.530Z,1.60
2018-02-04T01:22:11.090Z,1.60
2018-02-04T01:24:38.882Z,1.70
2018-02-04T01:27:06.468Z,1.80
2018-02-04T01:29:34.034Z,1.80
2018-02-04T01:32:01.980Z,1.80
2018-02-04T01:34:29.541Z,1.90
2018-02-04T01:36:57.169Z,1.90
2018-02-04T01:39:25.130Z,1.90
2018-02-04T01:41:52.706Z,1.90
2018-02-04T01:44:20.421Z,1.90
2018-02-04T01:46:48.752Z,1.90
2018-02-04T01:49:16.315Z,1.90
2018-02-04T01:51:43.884Z,1.90
2018-02-04T01:54:11.496Z,1.80
2018-02-04T01:56:39.082Z,1.80
2018-02-04T01:59:06.635Z,1.70
2018-02-04T02:01:34.192Z,1.70
2018-02-04T02:04:01.756Z,1.70
2018-02-04T02:06:29.325Z,1.70
2018-02-04T02:08:56.930Z,1.80
2018-02-04T02:11:25.492Z,1.80
2018-02-04T02:13:53.437Z,1.70
2018-02-04T02:16:21.785Z,1.70
2018-02-04T02:18:49.345Z,1.70
2018-02-04T02:21:16.945Z,1.70
2018-02-04T02:23:44.613Z,1.70
2018-02-04T02:26:12.168Z,1.70
2018-02-04T02:28:39.735Z,1.70
2018-02-04T02:31:07.474Z,1.70
2018-02-04T02:33:35.807Z,1.70
2018-02-04T02:36:03.394Z,1.70
2018-02-04T02:38:30.976Z,1.70
2018-02-04T02:40:59.429Z,1.70
2018-02-04T02:43:27.512Z,1.70
2018-02-04T02:45:55.084Z,1.70
2018-02-04T02:48:22.691Z,1.70
2018-02-04T02:50:50.253Z,1.70
2018-02-04T02:53:18.314Z,1.70
2018-02-04T02:55:45.890Z,1.70
2018-02-04T03:00:48.008Z,1.70
2018-02-04T03:03:15.583Z,1.80
2018-02-04T03:05:45.848Z,1.80
2018-02-04T03:08:14.288Z,1.70
2018-02-04T03:10:41.849Z,1.80
2018-02-04T03:13:09.421Z,1.80
2018-02-04T03:15:36.990Z,1.70
2018-02-04T03:18:05.325Z,1.70
2018-02-04T03:20:33.992Z,1.70
2018-02-04T03:23:01.674Z,1.70
2018-02-04T03:25:29.246Z,1.60
2018-02-04T03:27:57.180Z,1.70
2018-02-04T03:30:24.872Z,1.70
2018-02-04T03:32:53.191Z,1.70
2018-02-04T03:35:20.776Z,1.70
2018-02-04T03:37:48.328Z,1.80
2018-02-04T03:40:15.888Z,1.80
2018-02-04T03:42:43.512Z,1.80
2018-02-04T03:45:11.067Z,1.80
2018-02-04T03:47:38.625Z,1.80
2018-02-04T03:50:06.196Z,1.80
2018-02-04T03:52:33.767Z,1.80
2018-02-04T03:55:01.442Z,1.70
2018-02-04T03:57:29.011Z,1.70
2018-02-04T03:59:56.572Z,1.60
2018-02-04T04:02:24.200Z,1.40
2018-02-04T04:04:51.808Z,1.30
2018-02-04T04:07:20.151Z,1.20
2018-02-04T04:09:47.811Z,1.20
2018-02-04T04:12:15.390Z,1.20
2018-02-04T04:14:42.959Z,1.30
2018-02-04T04:17:10.546Z,1.30
2018-02-04T04:19:38.123Z,1.40
2018-02-04T04:22:05.796Z,1.40
2018-02-04T04:24:33.405Z,1.40
2018-02-04T04:27:01.734Z,1.50
2018-02-04T04:29:29.295Z,1.50
2018-02-04T04:31:56.881Z,1.50
2018-02-04T04:34:24.441Z,1.50
2018-02-04T04:36:52.228Z,1.50
2018-02-04T04:39:19.784Z,1.50
2018-02-04T04:41:47.354Z,1.50
2018-02-04T04:44:14.941Z,1.50
2018-02-04T04:46:42.520Z,1.50
2018-02-04T04:49:10.074Z,1.50
2018-02-04T04:51:37.744Z,1.40
2018-02-04T04:54:05.343Z,1.40
2018-02-04T04:56:32.904Z,1.30
2018-02-04T04:59:00.503Z,1.10
2018-02-04T05:01:28.166Z,0.90
2018-02-04T05:03:55.728Z,0.80
2018-02-04T05:06:23.368Z,0.60
2018-02-04T05:08:50.939Z,0.40
2018-02-04T05:11:18.504Z,0.30
2018-02-04T05:13:46.844Z,0.10
2018-02-04T05:16:14.399Z,0.10
2018-02-04T05:18:42.060Z,0.20
2018-02-04T05:21:09.768Z,0.30
2018-02-04T05:23:37.344Z,0.50
2018-02-04T05:26:04.907Z,0.60
2018-02-04T05:28:34.261Z,0.80
2018-02-04T05:31:02.994Z,0.90
2018-02-04T05:33:30.546Z,1.00
2018-02-04T05:35:58.985Z,1.20
2018-02-04T05:38:26.585Z,1.10
2018-02-04T05:40:54.166Z,1.10
2018-02-04T05:43:21.755Z,1.10
2018-02-04T05:45:50.313Z,1.10
2018-02-04T05:48:17.948Z,1.10
2018-02-04T05:50:45.518Z,1.10
2018-02-04T05:53:13.194Z,1.20
2018-02-04T05:55:40.747Z,1.30
2018-02-04T05:58:08.313Z,1.50
2018-02-04T06:00:36.668Z,1.70
2018-02-04T06:03:04.235Z,1.60
2018-02-04T06:05:31.910Z,1.70
2018-02-04T06:07:59.558Z,1.80
2018-02-04T06:10:27.120Z,1.80
2018-02-04T06:12:54.674Z,1.90
2018-02-04T06:15:22.296Z,1.90
2018-02-04T06:17:49.859Z,1.90
2018-02-04T06:20:17.426Z,1.80
2018-02-04T06:22:46.532Z,1.80
2018-02-04T06:25:14.104Z,1.80
2018-02-04T06:27:41.696Z,1.90
2018-02-04T06:30:09.252Z,1.80
2018-02-04T06:32:36.819Z,1.80
2018-02-04T06:35:04.419Z,1.70
2018-02-04T06:37:31.992Z,1.70
2018-02-04T06:39:59.563Z,1.60
2018-02-04T06:42:27.152Z,1.40
2018-02-04T06:44:54.729Z,1.20
2018-02-04T06:47:23.623Z,0.80
2018-02-04T06:49:51.431Z,0.80
2018-02-04T06:52:19.754Z,0.50
2018-02-04T06:54:47.368Z,0.40
2018-02-04T06:57:15.126Z,0.30
2018-02-04T06:59:42.686Z,0.20
2018-02-04T07:02:10.251Z,0.20
2018-02-04T07:04:37.971Z,0.30
2018-02-04T07:07:05.539Z,0.40
2018-02-04T07:09:33.104Z,0.50
2018-02-04T07:12:00.766Z,0.60
2018-02-04T07:14:28.427Z,0.80
2018-02-04T07:16:55.997Z,0.90
2018-02-04T07:19:24.143Z,1.10
2018-02-04T07:21:51.705Z,1.20
2018-02-04T07:24:19.276Z,1.40
2018-02-04T07:26:47.628Z,1.80
2018-02-04T07:29:15.245Z,1.70
2018-02-04T07:31:42.899Z,1.90
2018-02-04T07:34:10.464Z,2.00
2018-02-04T07:36:38.201Z,2.10
2018-02-04T07:39:05.756Z,2.30
2018-02-04T07:41:33.311Z,2.40
2018-02-04T07:44:00.939Z,2.50
2018-02-04T07:46:28.491Z,2.50
2018-02-04T07:48:56.072Z,2.50
2018-02-04T07:51:23.647Z,2.50
2018-02-04T07:53:51.319Z,2.60
2018-02-04T07:56:19.136Z,2.60
2018-02-04T07:58:47.458Z,2.70
2018-02-04T08:01:15.011Z,2.70
2018-02-04T08:03:42.627Z,2.80
2018-02-04T08:06:10.288Z,2.80
2018-02-04T08:08:38.090Z,2.90
2018-02-04T08:11:05.824Z,3.00
2018-02-04T08:13:33.492Z,3.00
2018-02-04T08:16:01.836Z,3.10
2018-02-04T08:18:29.395Z,3.10
2018-02-04T08:20:57.012Z,3.20
2018-02-04T08:23:25.727Z,3.30
2018-02-04T08:25:53.864Z,3.40
2018-02-04T08:28:21.649Z,3.50
2018-02-04T08:30:49.311Z,3.60
2018-02-04T08:33:16.870Z,3.80
2018-02-04T08:35:44.549Z,4.00
2018-02-04T08:38:12.114Z,4.10
2018-02-04T08:40:39.707Z,4.20
2018-02-04T08:43:07.372Z,4.30
2018-02-04T08:45:34.940Z,4.50
2018-02-04T08:48:02.585Z,4.60
2018-02-04T08:50:30.154Z,4.70
2018-02-04T08:52:57.778Z,4.90
2018-02-04T08:55:25.541Z,4.90
2018-02-04T08:57:53.110Z,5.00
2018-02-04T09:00:20.894Z,5.20
2018-02-04T09:02:48.461Z,5.40
2018-02-04T09:05:16.027Z,5.50
2018-02-04T09:07:43.815Z,5.50
2018-02-04T09:10:12.200Z,5.70
2018-02-04T09:12:39.756Z,5.60
2018-02-04T09:15:08.031Z,5.70
2018-02-04T09:17:35.733Z,5.80
2018-02-04T09:20:03.637Z,6.00
2018-02-04T09:22:31.235Z,6.20
2018-02-04T09:24:59.569Z,6.60
2018-02-04T09:27:27.133Z,6.50
2018-02-04T09:29:54.729Z,6.80
2018-02-04T09:32:22.345Z,7.00
2018-02-04T09:34:50.857Z,7.70
2018-02-04T09:37:18.577Z,7.60
2018-02-04T09:39:46.157Z,7.60
2018-02-04T09:42:13.729Z,7.50
2018-02-04T09:44:41.329Z,7.40
2018-02-04T09:47:09.678Z,6.80
2018-02-04T09:49:37.287Z,6.80
2018-02-04T09:52:05.627Z,6.30
2018-02-04T09:54:33.311Z,6.30
2018-02-04T09:57:01.188Z,6.20
2018-02-04T09:59:28.744Z,6.00
2018-02-04T10:01:56.406Z,6.00
2018-02-04T10:04:24.173Z,6.00
2018-02-04T10:06:55.240Z,5.90
2018-02-04T10:09:22.844Z,5.90
2018-02-04T10:11:50.750Z,5.70
2018-02-04T10:14:19.755Z,5.80
2018-02-04T10:16:47.616Z,5.80
2018-02-04T10:19:15.491Z,5.80
2018-02-04T10:21:43.048Z,5.90
2018-02-04T10:24:10.724Z,6.10
2018-02-04T10:26:38.281Z,6.20
2018-02-04T10:29:06.016Z,6.70
2018-02-04T10:31:34.485Z,7.50
2018-02-04T10:34:02.144Z,7.50
2018-02-04T10:36:29.774Z,8.00
2018-02-04T10:38:58.485Z,8.80
2018-02-04T10:41:26.111Z,8.80
2018-02-04T10:43:53.680Z,9.10
2018-02-04T10:46:21.279Z,9.20
2018-02-04T10:48:49.634Z,8.40
2018-02-04T10:54:16.893Z,7.80
2018-02-04T10:56:44.614Z,7.50
2018-02-04T10:59:12.236Z,7.30
2018-02-04T11:01:39.793Z,7.00
2018-02-04T11:04:08.199Z,6.50
2018-02-04T11:06:35.820Z,6.50
2018-02-04T11:09:03.569Z,6.20
2018-02-04T11:11:31.421Z,6.00
2018-02-04T11:13:59.030Z,5.70
2018-02-04T11:16:26.591Z,5.40
2018-02-04T11:18:55.421Z,5.40
2018-02-04T11:21:23.080Z,5.40
2018-02-04T11:23:50.656Z,5.50
2018-02-04T11:26:22.816Z,5.60
2018-02-04T11:28:50.420Z,6.00
2018-02-04T11:31:19.850Z,6.40
2018-02-04T11:33:49.019Z,6.90
2018-02-04T11:36:19.089Z,7.30
2018-02-04T11:38:50.357Z,7.70
2018-02-04T19:27:55.625Z,0.60
2018-02-04T19:30:24.070Z,0.50
2018-02-04T19:32:51.767Z,0.50
2018-02-04T19:35:20.140Z,0.50
2018-02-04T19:37:47.796Z,0.50
2018-02-04T19:40:15.359Z,0.50
2018-02-04T19:42:42.945Z,0.50
2018-02-04T19:45:10.517Z,0.50
2018-02-04T19:47:38.155Z,0.50
2018-02-04T19:50:06.975Z,0.50
2018-02-04T19:52:35.504Z,0.50
2018-02-04T19:55:03.073Z,0.50
2018-02-04T19:57:30.747Z,0.60
2018-02-04T19:59:58.305Z,0.60
2018-02-04T20:02:25.886Z,0.60
2018-02-04T20:04:53.464Z,0.70
2018-02-04T20:07:21.028Z,0.70
2018-02-04T20:09:48.728Z,0.70
2018-02-04T20:12:16.296Z,0.70
2018-02-04T20:14:44.071Z,0.70
2018-02-04T20:17:11.670Z,0.70
2018-02-04T20:19:40.060Z,0.70
2018-02-04T20:22:08.150Z,0.70
2018-02-04T20:24:35.831Z,0.80
2018-02-04T20:27:08.811Z,0.80
2018-02-04T20:29:37.167Z,0.90
2018-02-04T20:32:04.736Z,0.90
2018-02-04T20:34:44.530Z,1.00
2018-02-04T20:37:12.186Z,1.00
2018-02-04T20:39:39.744Z,1.00
2018-02-04T20:42:07.396Z,1.00
2018-02-04T20:44:37.367Z,1.10
2018-02-04T20:47:05.319Z,1.00
2018-02-04T20:49:33.971Z,1.00
2018-02-04T20:52:01.640Z,1.00
2018-02-04T20:54:29.290Z,1.00
2018-02-04T20:56:57.084Z,0.90
2018-02-04T20:59:30.327Z,1.00
2018-02-04T21:01:57.973Z,1.10
2018-02-04T21:04:25.612Z,1.10
2018-02-04T21:06:53.577Z,1.20
2018-02-04T21:09:21.132Z,1.20
2018-02-04T21:11:53.498Z,1.20
2018-02-04T21:14:21.506Z,1.20
2018-02-04T21:16:50.217Z,1.20
2018-02-04T21:19:22.464Z,1.30
2018-02-04T21:21:51.295Z,1.30
2018-02-04T21:24:18.895Z,1.30
2018-02-04T21:26:46.512Z,1.20
2018-02-04T21:29:15.208Z,1.00
2018-02-04T21:31:42.770Z,1.00
2018-02-04T21:34:11.308Z,1.00
2018-02-04T21:36:45.915Z,1.00
2018-02-04T21:39:14.333Z,1.00
2018-02-04T21:41:45.803Z,0.90
2018-02-04T21:44:14.854Z,0.90
2018-02-04T21:46:42.403Z,0.90
2018-02-04T21:49:10.301Z,1.00
2018-02-04T21:51:37.895Z,1.00
2018-02-04T21:54:05.631Z,1.10
2018-02-04T21:56:33.180Z,1.10
2018-02-04T21:59:00.743Z,1.10
2018-02-04T22:01:28.309Z,1.00
2018-02-04T22:03:56.643Z,1.10
2018-02-04T22:06:24.200Z,1.10
2018-02-04T22:08:51.980Z,1.10
2018-02-04T22:11:20.867Z,1.20
2018-02-04T22:13:48.459Z,1.20
2018-02-04T22:16:16.024Z,1.30
2018-02-04T22:18:43.579Z,1.30
2018-02-04T22:21:11.471Z,1.40
2018-02-04T22:23:39.187Z,1.40
2018-02-04T22:26:06.964Z,1.40
2018-02-04T22:28:34.636Z,1.40
2018-02-04T22:31:02.266Z,1.40
2018-02-04T22:33:29.916Z,1.40
2018-02-04T22:35:58.273Z,1.40
2018-02-04T22:38:25.847Z,1.40
2018-02-04T22:40:53.503Z,1.40
2018-02-04T22:43:21.104Z,1.50
2018-02-04T22:45:48.672Z,1.40
2018-02-04T22:48:16.334Z,1.50
2018-02-04T22:50:43.898Z,1.40
2018-02-04T22:53:11.655Z,1.50
2018-02-04T22:55:39.331Z,1.40
2018-02-04T22:58:07.012Z,1.40
2018-02-04T23:00:34.688Z,1.40
2018-02-04T23:07:50.146Z,1.30
2018-02-04T23:10:17.734Z,1.30
2018-02-04T23:12:45.296Z,1.30
2018-02-04T23:15:12.911Z,1.30
2018-02-04T23:17:41.244Z,1.30
2018-02-04T23:20:08.803Z,1.30
2018-02-04T23:22:36.454Z,1.30
2018-02-04T23:25:04.808Z,1.20
2018-02-04T23:27:32.394Z,1.20
2018-02-04T23:30:00.011Z,1.20
2018-02-04T23:32:27.597Z,1.30
2018-02-04T23:34:55.167Z,1.30
2018-02-04T23:37:22.758Z,1.30
2018-02-04T23:39:50.339Z,1.30
2018-02-04T23:42:17.916Z,1.40
2018-02-04T23:44:45.842Z,1.40
2018-02-04T23:47:14.169Z,1.40
2018-02-04T23:49:41.760Z,1.40
2018-02-04T23:52:09.340Z,1.40
2018-02-04T23:54:36.904Z,1.30
2018-02-04T23:57:05.493Z,1.30
2018-02-04T23:59:33.040Z,1.30
